AirNav   Air Wisconsin pilot careers
 
 272 users online  

74FD Clarksville Airport
Clarksville, Florida, USA


FAA INFORMATION EFFECTIVE 09 NOVEMBER 2017

Location

FAA Identifier: 74FD
Lat/Long: 30-27-50.7010N / 085-10-37.7130W
30-27.845017N / 085-10.628550W
30.4640836 / -85.1771425
(estimated)
Elevation: 90 ft. / 27 m (estimated)
Variation: 01W (1990)
From city: 2 miles N of CLARKSVILLE, FL
Time zone: UTC -6 (UTC -5 during Daylight Saving Time)
Zip code: 32430

Airport Operations

Airport use: Private use. Permission required prior to landing
Activation date: 03/1993
Control tower: no
ARTCC: JACKSONVILLE CENTER
FSS: GAINESVILLE FLIGHT SERVICE STATION
Attendance: UNATNDD
Segmented circle: no

Airport Communications

WX AWOS-AV at F95 (4 nm NE): 119.350 (850-674-1347)

Nearby radio navigation aids

VOR radial/distance  VOR name  Freq  Var
MAIr188/19.5MARIANNA VORTAC114.0000E
HLLr055/33.2HANDLE VORTAC114.3004W

 
NDB name  Hdg/Dist  Freq  Var  ID
SOYYA176/24.632902WSMY ... -- -.--
LYNNE079/32.427804WPFN .--. ..-. -.

Airport Services

Runway Information

Runway 5/23

Dimensions: 2600 x 100 ft. / 792 x 30 m
Surface: turf
RUNWAY 5  RUNWAY 23
Traffic pattern: leftleft

Airport Ownership and Management from official FAA records

Ownership: Privately-owned
Owner: RONALD STITELER
ROUTE 1 BOX 140
ALTHA, FL 32421
Phone 850-674-8385

Instrument Procedures

There are no published instrument procedures at 74FD.

Some nearby airports with instrument procedures:

KMAI - Marianna Municipal Airport (22 nm N)
KPAM - Tyndall Air Force Base (31 nm SW)
1J0 - Tri-County Airport (32 nm NW)
KECP - Northwest Florida Beaches International Airport (33 nm W)
2J9 - Quincy Municipal Airport (33 nm E)
 
Loc | Ops | Rwys | IFR | FBO | Links
Com | Nav | Svcs | Stats | Notes


 
Area around 74FD (Clarksville Airport)
 
Road maps at: MapQuest Bing Google
 
Aerial photo
No photo
 
Sectional chart

 
Airport distance calculator
Flying to Clarksville Airport? Find the distance to fly.

From to 74FD

Sunrise and sunset
Times for 21-Nov-2017
 Local
(UTC-6)
 Zulu
(UTC)
Morning civil twilight05:4711:47
Sunrise06:1312:13
Sunset16:4122:41
Evening civil twilight17:0623:06

Current date and time
Zulu (UTC)  21-Nov-2017 08:51:33
Local (UTC-6)  21-Nov-2017 02:51:33
 
METAR
KMAI 
22nm N 
210753Z AUTO 00000KT 10SM SCT050 07/05 A3008 RMK AO2 SLP184 T00670050
KPAM 
31nm SW 
210756Z 36006KT 10SM BKN027 BKN033 BKN060 11/06 A3007 RMK AO2A CIG 027V065 SLP186 T01100061 TSNO $
KECP 
33nm W 
210753Z AUTO 33005KT 10SM FEW039 FEW055 07/04 A3008 RMK AO2 SLP196 T00720044
K2J9 
33nm E 
210815Z AUTO 08005KT 10SM FEW044 FEW049 OVC060 11/10 A3008 RMK AO2
KBGE 
41nm NE 
210815Z AUTO 07003KT 10SM CLR 10/09 A3008 RMK AO2
KTLH 
43nm E 
210753Z AUTO 00000KT 10SM BKN065 11/11 A3007 RMK AO2 SLP181 T01110106
TAF
KPAM 
31nm SW 
210453Z 2104/2209 03006KT 9999 FEW030 QNH3006INS BECMG 2111/2112 36006KT 9999 BKN015 QNH3004INS BECMG 2114/2115 06009KT 8000 -SHRA OVC010 QNH2995INS TEMPO 2118/2124 VRB10G20KT 4800 -TSRA BKN008CB BECMG 2202/2203 36012KT 9999 NSW BKN006 QNH2998INS TX21/2120Z TN05/2109Z LAST NO AMDS AFT 2105 NEXT 2111
KECP 
33nm W 
210528Z 2106/2206 35004KT P6SM SCT050 BKN200 FM211100 33004KT P6SM -RA BKN035 FM211500 33005KT P6SM -RA BKN020
NOTAMs
Click for the latest NOTAMs
NOTAMs are issued by the DoD/FAA and will open in a separate window not controlled by AirNav.

 

 
 

Would you like to see your business listed on this page?

 If your business provides an interesting product or service to pilots, flight crews, aircraft, or users of the Clarksville Airport, you should consider listing it here.  To start the listing process, click on the button below
 
Add a business
 

Other Pages about Clarksville Airport

Update a link
 
Copyright © AirNav, LLC. All rights reserved. Privacy Policy  Contact